Kerrville, TX (78029)

10:55 PM CST on December 17, 2014 (GMT -0600)
Mt. Wesley | Change Station
CLOSE
Current Station
Personal Weather Station
Location: Kerrville, TX
Elevation: 1818 ft
Nearby Weather Stations

Elev 1818 ft 30.08 °N, 99.16 °W | Updated 4 minutes ago

Fog
Fog
51.6 °F
Feels Like 51.6 °F
N
0.0
Wind Variable Wind from NNW

Today
High -- | Low -- °F
--% Chance of Precip.
Yesterday
High -- | Low -- °F
Precip. -- in
7:26 AM 5:39 PM
Waning Crescent, 17% visible
Pressure 30.12 in
Visibility 0.8 miles
Clouds Overcast 300 ft
Dew Point 51 °F
Humidity 99%
Rainfall 0.04 in
Snow Depth Not available.
UV 0 out of 12
Pollen 7.40 out of 12
Air Quality Not available.
Flu Activity Not available.
METAR KERV 180435Z AUTO 00000KT 3/4SM -DZ OVC003 11/10 A3012 RMK AO2 T01060100

More Conditions Fewer Conditions

Pressure 30.12 in
Visibility 0.8 miles
Clouds Overcast 300 ft
Dew Point 51 °F
Humidity 99%
Rainfall 0.04 in
Snow Depth Not available.
UV 0 out of 12
Pollen 7.40 out of 12
Air Quality Not available.
Flu Activity Not available.
METAR KERV 180435Z AUTO 00000KT 3/4SM -DZ OVC003 11/10 A3012 RMK AO2 T01060100

More Conditions Fewer Conditions

Nowcast | as of 9:23 PM CST on December 17, 2014

Through 11 PM...patchy light drizzle will move northeast across south central Texas. Spotty rainfall amounts of a few hundredths of an inch are possible. Patchy fog will continue to develop across the region with visibilities generally 3 to 5 miles. Motorists should exercise caution and slow down in areas of fog as visibilities may drop rapidly. Remember to use the low beam headlights in areas of fog.

×

10-Day Weather Forecast

Almanac

Astronomy

Dec. 17, 2014 Rise Set
Actual Time
Civil Twilight
Nautical Twilight
Astronomical Twilight
Moon
Length of Visible Light
Length of Day
Tomorrow will be .
, % of the Moon is Illuminated

Today's Extremes

State Highs State Lows

Community

WunderPhotos

Upload Photos

1,778,883 photos uploaded!

WunderBlogs® & News

Nearby

Air Quality

  Air Quality AQ Index Pollutant
Not available.

Snow Depth

Station Depth Elevation

Earthquake Activity

City Distance Mag. Time & Date
Minimum magnitude displayed is 2.5.

Coastal Water Temperatures

Place Temperature

Nearby Weather Stations